Time;durP1;ratioP1;P1;durP2;ratioP2;P2;SDS_P1;SDS_P2;PMS_P1;PMS_P2;Temp;Humidity;BMP_temperature;BMP_pressure;BME280_temperature;BME280_humidity;BME280_pressure;Samples;Min_cycle;Max_cycle;Signal;HPM_P1;HPM_P2
2021/06/19 00:01:59;;;;;;;7.63;2.58;;;;;;;25.76;54.73;100890.50;5095371;28;20118;-68
2021/06/19 00:04:25;;;;;;;5.93;2.75;;;;;;;25.65;54.65;100899.38;5089667;28;20055;-67
2021/06/19 00:06:52;;;;;;;5.97;2.53;;;;;;;25.61;55.11;100893.44;5095833;28;20075;-67
2021/06/19 00:09:20;;;;;;;9.48;2.50;;;;;;;25.57;54.94;100902.66;5088072;28;20055;-68
2021/06/19 00:11:46;;;;;;;8.75;2.30;;;;;;;25.57;54.97;100899.16;5097686;28;20055;-67
2021/06/19 00:14:13;;;;;;;6.07;2.33;;;;;;;25.56;55.07;100902.78;5089447;28;20055;-68
2021/06/19 00:16:39;;;;;;;5.97;2.05;;;;;;;25.53;55.22;100911.00;5092255;28;20051;-68
2021/06/19 00:19:06;;;;;;;6.43;1.98;;;;;;;25.46;55.30;100915.97;5095884;28;20048;-66
2021/06/19 00:21:32;;;;;;;5.90;2.00;;;;;;;25.37;55.38;100914.00;5090428;28;20048;-68
2021/06/19 00:23:58;;;;;;;5.53;2.10;;;;;;;25.35;55.40;100919.47;5078117;28;20117;-68
2021/06/19 00:26:26;;;;;;;4.72;2.22;;;;;;;25.29;55.55;100925.28;5081300;28;21413;-68
2021/06/19 00:28:53;;;;;;;5.03;1.92;;;;;;;25.30;55.33;100917.16;5085751;28;20402;-67
2021/06/19 00:31:19;;;;;;;5.63;1.77;;;;;;;25.32;54.58;100908.22;5101961;28;20040;-67
2021/06/19 00:33:46;;;;;;;7.45;1.85;;;;;;;25.27;54.66;100911.25;5089465;28;20113;-68
2021/06/19 00:36:12;;;;;;;4.40;1.55;;;;;;;25.25;54.46;100915.84;5093410;28;20043;-67
2021/06/19 00:38:38;;;;;;;4.68;1.80;;;;;;;25.20;54.61;100912.72;5102740;28;20509;-65
2021/06/19 00:41:05;;;;;;;4.53;1.40;;;;;;;25.19;54.29;100921.66;5086574;28;20047;-66
2021/06/19 00:43:33;;;;;;;4.50;1.20;;;;;;;25.12;54.31;100916.78;5094759;28;20052;-67
2021/06/19 00:46:00;;;;;;;6.75;1.30;;;;;;;25.01;54.54;100921.28;5106275;28;20113;-67
2021/06/19 00:48:27;;;;;;;6.28;1.42;;;;;;;24.93;54.41;100922.72;5088390;28;20047;-67
2021/06/19 00:50:54;;;;;;;2.95;1.33;;;;;;;24.87;54.51;100917.03;5091122;28;20409;-68
2021/06/19 00:53:20;;;;;;;4.72;1.50;;;;;;;24.83;54.27;100919.91;5100000;28;20404;-67
2021/06/19 00:55:47;;;;;;;5.82;1.38;;;;;;;24.79;54.37;100923.78;5088513;28;20052;-67
2021/06/19 00:58:13;;;;;;;3.28;1.20;;;;;;;24.72;54.40;100922.53;5086319;28;20056;-68
2021/06/19 01:00:41;;;;;;;2.72;1.10;;;;;;;24.62;54.28;100921.50;5093396;28;20052;-68
2021/06/19 01:03:07;;;;;;;5.63;1.48;;;;;;;24.61;54.54;100925.13;5097623;28;20059;-67
2021/06/19 01:05:34;;;;;;;4.80;1.40;;;;;;;24.59;54.41;100911.97;5092414;28;20044;-67
2021/06/19 01:08:01;;;;;;;4.65;0.95;;;;;;;24.60;54.45;100912.81;5090514;28;20059;-68
2021/06/19 01:10:27;;;;;;;1.90;1.10;;;;;;;24.53;54.49;100913.28;5086718;28;20043;-67
2021/06/19 01:12:54;;;;;;;4.20;1.23;;;;;;;24.44;54.78;100910.47;5096510;28;20051;-67
2021/06/19 01:15:22;;;;;;;5.57;1.70;;;;;;;24.41;55.02;100908.03;5089285;28;20136;-67
2021/06/19 01:17:49;;;;;;;4.43;1.20;;;;;;;24.44;54.53;100913.13;5089705;28;20052;-67
2021/06/19 01:20:18;;;;;;;3.85;1.38;;;;;;;24.33;55.14;100912.13;5094648;28;20045;-67
2021/06/19 01:22:47;;;;;;;3.28;1.40;;;;;;;24.35;54.89;100917.31;5084393;28;20070;-68
2021/06/19 01:25:19;;;;;;;3.55;1.20;;;;;;;24.26;55.13;100920.66;5084939;28;20059;-68
2021/06/19 01:27:48;;;;;;;3.35;1.30;;;;;;;24.22;55.30;100920.88;5080123;28;20043;-68
2021/06/19 01:30:16;;;;;;;5.30;1.27;;;;;;;24.17;55.52;100933.69;5095657;28;20075;-68
2021/06/19 01:32:43;;;;;;;5.07;1.80;;;;;;;24.15;55.54;100924.97;5084577;28;20130;-67
2021/06/19 01:35:10;;;;;;;6.72;1.40;;;;;;;24.21;55.38;100929.81;5090530;28;20435;-68
2021/06/19 01:37:42;;;;;;;5.43;1.33;;;;;;;24.15;55.31;100930.28;5082054;28;20521;-68
2021/06/19 01:40:11;;;;;;;3.25;1.20;;;;;;;24.06;55.79;100930.97;5084693;28;20044;-68
2021/06/19 01:42:41;;;;;;;1.73;0.90;;;;;;;23.98;56.18;100928.03;5084745;28;20052;-68
2021/06/19 01:45:13;;;;;;;3.58;1.25;;;;;;;23.97;56.40;100928.97;5089249;28;20052;-68
2021/06/19 01:47:39;;;;;;;3.72;1.23;;;;;;;24.00;56.29;100926.13;5091504;28;20420;-68
2021/06/19 01:50:07;;;;;;;6.10;1.20;;;;;;;23.96;56.31;100930.78;5083190;28;20040;-68
2021/06/19 01:52:33;;;;;;;2.28;1.00;;;;;;;23.89;56.64;100919.75;5088930;28;20063;-67
2021/06/19 01:55:00;;;;;;;2.50;1.00;;;;;;;23.82;56.70;100928.25;5082884;28;20044;-68
2021/06/19 01:57:26;;;;;;;5.07;1.27;;;;;;;23.79;56.86;100926.69;5089556;28;20055;-68
2021/06/19 02:00:01;;;;;;;4.00;1.35;;;;;;;23.76;57.32;100935.69;5097120;28;20052;-67
2021/06/19 02:02:27;;;;;;;;;;;;;;;23.81;56.98;100931.88;5109821;22;20050;-61
2021/06/19 02:04:53;;;;;;;6.53;1.38;;;;;;;23.73;57.21;100935.06;5085236;28;19932;-62
2021/06/19 02:07:20;;;;;;;3.47;1.10;;;;;;;23.72;57.48;100934.25;5094988;28;20051;-62
2021/06/19 02:09:46;;;;;;;7.03;1.70;;;;;;;23.67;57.41;100930.22;5087842;28;20055;-57
2021/06/19 02:12:13;;;;;;;2.95;1.27;;;;;;;23.58;57.98;100927.25;5098492;28;20048;-62
2021/06/19 02:14:39;;;;;;;2.25;1.00;;;;;;;23.65;58.09;100929.47;5082584;28;20566;-58
2021/06/19 02:17:07;;;;;;;4.28;1.13;;;;;;;23.52;58.51;100938.31;5096324;28;20054;-63
2021/06/19 02:19:34;;;;;;;8.38;1.20;;;;;;;23.44;58.56;100933.56;5081137;28;20045;-62
2021/06/19 02:22:00;;;;;;;4.05;1.25;;;;;;;23.39;59.07;100932.19;5085961;28;20749;-60
2021/06/19 02:24:26;;;;;;;4.30;1.20;;;;;;;23.36;59.32;100935.03;5077136;28;20056;-61
2021/06/19 02:27:06;;;;;;;3.13;1.13;;;;;;;23.37;59.38;100939.41;5087762;28;20052;-59
2021/06/19 02:29:33;;;;;;;6.60;1.20;;;;;;;23.38;59.30;100933.13;5088547;28;20044;-60
2021/06/19 02:31:59;;;;;;;5.60;1.50;;;;;;;23.42;59.39;100932.81;5083120;28;20078;-60
2021/06/19 02:34:27;;;;;;;4.75;1.55;;;;;;;23.39;59.47;100926.88;5086154;28;20051;-60
2021/06/19 02:36:53;;;;;;;2.88;1.23;;;;;;;23.38;59.61;100933.97;5090089;28;20048;-55
2021/06/19 02:39:20;;;;;;;2.55;1.20;;;;;;;23.36;59.46;100945.66;5084196;28;20071;-61
2021/06/19 02:41:46;;;;;;;3.30;1.13;;;;;;;23.34;59.86;100950.22;5085770;28;20051;-58
2021/06/19 02:44:13;;;;;;;3.58;1.27;;;;;;;23.39;59.53;100943.63;5082950;28;20048;-59
2021/06/19 02:46:39;;;;;;;2.85;1.00;;;;;;;23.34;59.89;100947.56;5090492;28;20048;-61
2021/06/19 02:49:05;;;;;;;3.53;1.38;;;;;;;23.22;60.17;100952.78;5089460;28;20430;-57
2021/06/19 02:51:33;;;;;;;2.83;1.27;;;;;;;23.18;60.22;100955.72;5085309;28;20504;-57
2021/06/19 02:54:00;;;;;;;3.92;1.50;;;;;;;23.21;60.48;100955.53;5083111;28;20048;-59
2021/06/19 02:56:26;;;;;;;2.78;1.20;;;;;;;23.10;60.47;100966.88;5091629;28;20052;-60
2021/06/19 02:58:53;;;;;;;6.28;1.42;;;;;;;23.00;60.92;100965.81;5081619;28;20556;-59
2021/06/19 03:01:19;;;;;;;3.80;1.23;;;;;;;23.02;61.14;100963.88;5076783;28;20044;-61
2021/06/19 03:03:45;;;;;;;5.47;1.50;;;;;;;23.05;61.00;100963.69;5079801;28;20059;-59
2021/06/19 03:06:12;;;;;;;4.43;1.20;;;;;;;23.04;60.97;100967.28;5084733;28;20044;-60
2021/06/19 03:08:40;;;;;;;3.92;1.30;;;;;;;23.01;61.01;100959.56;5087293;28;20056;-58
2021/06/19 03:11:06;;;;;;;2.90;1.25;;;;;;;22.93;61.43;100966.22;5088541;28;20043;-61
2021/06/19 03:13:33;;;;;;;3.30;1.17;;;;;;;22.93;61.60;100974.16;5082234;28;20051;-60
2021/06/19 03:15:59;;;;;;;2.60;1.20;;;;;;;22.97;61.04;100972.16;5078652;28;20106;-61
2021/06/19 03:18:25;;;;;;;6.22;1.52;;;;;;;22.95;61.02;100976.72;5089175;28;20051;-60
2021/06/19 03:20:52;;;;;;;2.78;1.15;;;;;;;22.92;61.42;100976.94;5080685;28;20044;-59
2021/06/19 03:23:18;;;;;;;3.50;1.33;;;;;;;22.89;61.51;100978.00;5073972;28;20051;-61
2021/06/19 03:25:46;;;;;;;3.47;1.20;;;;;;;22.83;61.49;100981.03;5089311;28;20048;-59
2021/06/19 03:28:15;;;;;;;3.15;1.30;;;;;;;22.82;61.78;100987.28;5081287;28;20044;-59
2021/06/19 03:30:44;;;;;;;5.22;1.35;;;;;;;22.78;61.64;100991.13;5082799;28;20505;-58
2021/06/19 03:33:12;;;;;;;3.88;1.20;;;;;;;22.79;61.58;100987.53;5091259;28;20048;-61
2021/06/19 03:35:39;;;;;;;5.75;1.88;;;;;;;22.70;61.91;100991.63;5081871;28;20052;-60
2021/06/19 03:38:06;;;;;;;6.25;1.30;;;;;;;22.76;62.09;100999.16;5088059;28;20052;-59
2021/06/19 03:40:34;;;;;;;4.65;1.33;;;;;;;22.76;61.98;101001.81;5082193;28;20066;-60
2021/06/19 03:43:02;;;;;;;4.50;1.30;;;;;;;22.88;61.44;101002.81;5090485;28;20048;-61
2021/06/19 03:45:31;;;;;;;3.90;1.30;;;;;;;22.92;61.32;100998.16;5084523;28;20051;-62
2021/06/19 03:47:58;;;;;;;4.63;1.30;;;;;;;22.98;61.41;100997.72;5086963;28;20044;-58
2021/06/19 03:50:27;;;;;;;5.18;1.45;;;;;;;23.11;60.66;101005.69;5086584;28;20051;-56
2021/06/19 03:52:54;;;;;;;3.00;1.10;;;;;;;23.21;60.60;101008.63;5088785;28;20063;-59
2021/06/19 03:55:22;;;;;;;3.13;1.30;;;;;;;23.27;60.69;101013.50;5083533;28;20059;-59
2021/06/19 03:57:49;;;;;;;2.50;1.50;;;;;;;23.18;60.26;101014.09;5088490;28;20083;-59
2021/06/19 04:00:19;;;;;;;3.10;1.15;;;;;;;23.04;60.87;101017.69;5083758;28;20044;-59
2021/06/19 04:02:46;;;;;;;5.07;1.40;;;;;;;22.92;61.46;101032.63;5077288;28;20051;-60
2021/06/19 04:05:14;;;;;;;3.50;1.20;;;;;;;22.87;61.96;101029.44;5078588;28;20052;-60
2021/06/19 04:07:41;;;;;;;6.43;1.73;;;;;;;22.84;62.22;101027.84;5076240;28;20493;-59
2021/06/19 04:10:09;;;;;;;3.70;1.30;;;;;;;22.80;61.99;101031.66;5077350;28;20055;-60
2021/06/19 04:12:36;;;;;;;4.47;1.33;;;;;;;22.81;62.29;101025.38;5089193;28;20490;-55
2021/06/19 04:15:02;;;;;;;4.40;1.20;;;;;;;22.85;61.92;101024.22;5081811;28;20048;-58
2021/06/19 04:17:30;;;;;;;2.92;1.13;;;;;;;22.86;62.06;101031.25;5081791;28;20052;-58
2021/06/19 04:19:56;;;;;;;3.75;1.90;;;;;;;22.74;62.09;101022.31;5087100;28;20089;-57
2021/06/19 04:22:23;;;;;;;5.28;1.52;;;;;;;22.70;62.41;101026.09;5085742;28;20452;-61
2021/06/19 04:24:49;;;;;;;5.93;1.50;;;;;;;22.81;62.67;101022.72;5082804;28;20504;-60
2021/06/19 04:27:18;;;;;;;2.70;1.38;;;;;;;23.08;61.38;101021.84;5081280;28;20055;-59
2021/06/19 04:29:45;;;;;;;3.80;1.30;;;;;;;23.32;60.77;101018.47;5082872;28;20048;-58
2021/06/19 04:32:12;;;;;;;3.45;1.20;;;;;;;23.56;59.99;101016.78;5086275;28;20044;-61
2021/06/19 04:34:41;;;;;;;3.88;1.20;;;;;;;23.82;59.21;101021.22;5085303;28;20505;-60
2021/06/19 04:37:09;;;;;;;2.75;1.25;;;;;;;24.04;58.31;101032.06;5087186;28;20044;-61
2021/06/19 04:39:38;;;;;;;3.28;1.30;;;;;;;24.21;58.07;101041.44;5078084;28;20453;-59
2021/06/19 04:42:07;;;;;;;3.33;1.30;;;;;;;24.34;57.68;101035.25;5082708;28;20062;-58
2021/06/19 04:45:00;;;;;;;3.85;1.48;;;;;;;24.51;57.30;101034.84;5085259;28;20052;-58
2021/06/19 04:47:27;;;;;;;6.55;1.35;;;;;;;24.64;56.81;101044.59;5079654;28;20125;-62
2021/06/19 04:49:56;;;;;;;3.75;1.40;;;;;;;24.81;56.07;101046.03;5083543;28;20486;-60
2021/06/19 04:52:23;;;;;;;4.85;1.52;;;;;;;24.72;56.37;101046.72;5082993;28;20058;-56
2021/06/19 04:54:50;;;;;;;3.05;1.20;;;;;;;24.77;56.19;101042.75;5079702;28;20053;-62
2021/06/19 04:57:16;;;;;;;2.92;1.25;;;;;;;24.90;55.82;101048.00;5083654;28;20067;-59
2021/06/19 04:59:43;;;;;;;2.78;1.23;;;;;;;25.02;55.86;101040.06;5080804;28;20040;-61
2021/06/19 05:02:09;;;;;;;4.65;1.20;;;;;;;25.24;55.01;101048.13;5084620;28;20510;-59
2021/06/19 05:04:36;;;;;;;3.40;1.30;;;;;;;25.38;54.48;101055.03;5082731;28;20524;-60
2021/06/19 05:07:04;;;;;;;3.13;1.73;;;;;;;25.35;54.92;101052.59;5083587;28;20055;-58
2021/06/19 05:09:31;;;;;;;5.65;1.23;;;;;;;25.42;54.53;101063.66;5080211;28;20058;-61
2021/06/19 05:11:57;;;;;;;4.07;1.40;;;;;;;25.51;54.49;101067.41;5088538;28;20067;-60
2021/06/19 05:14:23;;;;;;;3.83;1.48;;;;;;;25.70;53.93;101067.72;5085397;28;20524;-59
2021/06/19 05:16:50;;;;;;;3.38;1.40;;;;;;;25.80;53.29;101073.16;5084989;28;20059;-61
2021/06/19 05:19:19;;;;;;;2.50;1.20;;;;;;;25.85;52.62;101081.66;5081593;28;20459;-60
2021/06/19 05:21:45;;;;;;;2.67;1.20;;;;;;;25.86;52.70;101077.97;5085580;28;20048;-60
2021/06/19 05:24:14;;;;;;;5.68;1.27;;;;;;;25.85;52.33;101075.44;5079405;28;20047;-60
2021/06/19 05:26:41;;;;;;;3.38;1.13;;;;;;;25.72;52.05;101073.75;5079410;28;20040;-63
2021/06/19 05:29:08;;;;;;;2.55;1.30;;;;;;;25.63;52.41;101076.28;5078371;28;20171;-60
2021/06/19 05:31:34;;;;;;;8.63;1.17;;;;;;;25.64;53.34;101078.81;5084875;28;20071;-63
2021/06/19 05:34:01;;;;;;;3.42;1.15;;;;;;;25.88;52.81;101088.53;5081631;28;20040;-61
2021/06/19 05:36:27;;;;;;;2.70;1.20;;;;;;;26.04;51.60;101083.69;5083967;28;20044;-60
2021/06/19 05:38:54;;;;;;;2.35;1.20;;;;;;;25.94;51.33;101089.88;5076982;28;20047;-62
2021/06/19 05:41:22;;;;;;;6.70;1.60;;;;;;;25.50;52.36;101092.38;5082423;28;20048;-59
2021/06/19 05:43:49;;;;;;;3.88;1.27;;;;;;;25.27;53.31;101100.28;5081294;28;20130;-60
2021/06/19 05:46:15;;;;;;;2.67;1.10;;;;;;;25.09;53.93;101110.50;5076721;28;20047;-63
2021/06/19 05:48:41;;;;;;;8.38;1.00;;;;;;;24.95;54.49;101098.22;5080018;28;20063;-62
2021/06/19 05:51:08;;;;;;;2.58;1.45;;;;;;;24.77;54.52;101092.44;5076751;28;20055;-62
2021/06/19 05:53:34;;;;;;;5.25;1.30;;;;;;;24.59;55.12;101098.13;5081370;28;20497;-61
2021/06/19 05:56:01;;;;;;;3.30;1.27;;;;;;;24.57;55.35;101097.38;5083512;28;20048;-61
2021/06/19 05:58:29;;;;;;;5.43;1.42;;;;;;;24.45;55.51;101101.78;5087825;28;20055;-61
2021/06/19 06:00:55;;;;;;;4.00;1.52;;;;;;;24.38;55.28;101095.22;5089522;28;20048;-58
2021/06/19 06:03:21;;;;;;;3.40;1.38;;;;;;;24.14;56.08;101104.00;5091940;28;20074;-59
2021/06/19 06:05:48;;;;;;;5.75;1.70;;;;;;;24.19;55.92;101104.53;5080385;28;20045;-59
2021/06/19 06:08:14;;;;;;;6.18;1.65;;;;;;;24.19;55.61;101099.22;5084581;28;20040;-58
2021/06/19 06:10:41;;;;;;;3.95;1.40;;;;;;;24.25;56.15;101107.69;5082177;28;20437;-60
2021/06/19 06:13:08;;;;;;;3.63;1.40;;;;;;;24.43;55.46;101106.38;5091663;28;20040;-60
2021/06/19 06:15:35;;;;;;;3.33;1.42;;;;;;;24.47;55.21;101105.19;5087192;28;20051;-61
2021/06/19 06:18:02;;;;;;;3.78;1.55;;;;;;;24.65;55.08;101099.50;5084718;28;20048;-60
2021/06/19 06:20:29;;;;;;;4.72;1.50;;;;;;;24.89;54.88;101109.34;5079990;28;20074;-58
2021/06/19 06:22:55;;;;;;;3.85;1.58;;;;;;;25.24;53.55;101104.03;5086128;28;20039;-58
2021/06/19 06:25:22;;;;;;;5.78;1.60;;;;;;;25.79;52.26;101113.25;5083770;28;20493;-58
2021/06/19 06:27:48;;;;;;;4.25;1.70;;;;;;;26.42;50.27;101115.41;5087423;28;20596;-59
2021/06/19 06:30:15;;;;;;;6.45;1.67;;;;;;;26.75;48.95;101118.97;5083568;28;20130;-58
2021/06/19 06:32:43;;;;;;;4.35;1.10;;;;;;;27.19;48.20;101114.47;5093292;28;20054;-59
2021/06/19 06:35:10;;;;;;;3.60;1.30;;;;;;;27.17;47.82;101121.78;5082669;28;20433;-61
2021/06/19 06:37:37;;;;;;;2.33;1.33;;;;;;;27.11;48.05;101132.94;5088149;28;20053;-57
2021/06/19 06:40:06;;;;;;;6.18;1.50;;;;;;;26.84;48.50;101137.81;5082565;28;20048;-60
2021/06/19 06:42:32;;;;;;;4.25;1.30;;;;;;;26.66;48.66;101131.25;5083742;28;20122;-61
2021/06/19 06:44:58;;;;;;;4.68;1.58;;;;;;;26.48;49.72;101123.78;5086029;28;20052;-58
2021/06/19 06:47:25;;;;;;;5.05;1.50;;;;;;;26.48;49.29;101126.44;5079462;28;20053;-60
2021/06/19 06:49:53;;;;;;;2.97;1.40;;;;;;;26.58;49.66;101137.22;5082666;28;20052;-60
2021/06/19 06:52:19;;;;;;;4.85;1.65;;;;;;;26.82;48.54;101137.06;5086613;28;20056;-58
2021/06/19 06:54:46;;;;;;;5.13;1.80;;;;;;;27.07;48.09;101131.53;5086764;28;20128;-59
2021/06/19 06:57:12;;;;;;;4.15;1.60;;;;;;;27.22;47.54;101137.41;5085723;28;20040;-61
2021/06/19 06:59:39;;;;;;;5.50;1.70;;;;;;;27.42;46.88;101135.72;5085471;28;20052;-61
2021/06/19 07:02:05;;;;;;;4.85;1.30;;;;;;;27.59;46.75;101135.19;5086561;28;20130;-66
2021/06/19 07:04:32;;;;;;;4.32;1.55;;;;;;;27.69;46.59;101137.88;5078257;28;20052;-60
2021/06/19 07:07:00;;;;;;;2.90;1.20;;;;;;;27.83;45.51;101130.53;5084938;28;20043;-58
2021/06/19 07:09:26;;;;;;;2.78;1.25;;;;;;;27.64;46.08;101141.94;5086898;28;20434;-59
2021/06/19 07:11:52;;;;;;;6.82;1.30;;;;;;;27.69;45.65;101137.06;5086419;28;20047;-59
2021/06/19 07:14:19;;;;;;;6.57;1.30;;;;;;;27.70;46.27;101138.75;5078594;28;20044;-61
2021/06/19 07:16:45;;;;;;;3.88;1.33;;;;;;;27.74;45.77;101148.19;5091389;28;20047;-60
2021/06/19 07:19:12;;;;;;;3.72;1.35;;;;;;;27.78;45.63;101152.31;5079030;28;20051;-61
2021/06/19 07:21:38;;;;;;;2.97;1.20;;;;;;;27.81;45.39;101149.34;5083279;28;20439;-58
2021/06/19 07:24:07;;;;;;;3.35;1.20;;;;;;;27.69;45.69;101142.41;5084212;28;20056;-60
2021/06/19 07:26:33;;;;;;;2.83;1.45;;;;;;;27.72;45.53;101134.09;5094407;28;20134;-61
2021/06/19 07:28:59;;;;;;;4.40;1.58;;;;;;;27.74;45.99;101137.50;5078152;28;20043;-60
2021/06/19 07:31:26;;;;;;;3.35;1.23;;;;;;;27.77;45.22;101145.25;5090946;28;20048;-57
2021/06/19 07:33:53;;;;;;;1.77;0.95;;;;;;;27.82;45.16;101148.38;5080899;28;20036;-62
2021/06/19 07:36:19;;;;;;;3.03;1.40;;;;;;;27.89;44.44;101140.66;5084209;28;20056;-61
2021/06/19 07:38:46;;;;;;;2.33;0.98;;;;;;;27.99;44.16;101138.88;5084731;28;20121;-62
2021/06/19 07:41:13;;;;;;;2.55;1.30;;;;;;;28.07;43.87;101143.56;5087583;28;20048;-62
2021/06/19 07:43:40;;;;;;;2.08;1.10;;;;;;;27.98;43.67;101147.06;5083217;28;20422;-57
2021/06/19 07:46:07;;;;;;;3.80;1.08;;;;;;;27.81;43.87;101141.31;5093299;28;20544;-61
2021/06/19 07:48:33;;;;;;;5.85;1.33;;;;;;;27.53;44.59;101130.34;5081936;28;20079;-57
2021/06/19 07:51:00;;;;;;;3.20;1.30;;;;;;;27.56;44.46;101123.88;5093417;28;20039;-61
2021/06/19 07:53:26;;;;;;;5.82;1.25;;;;;;;27.68;44.27;101122.00;5089175;28;20051;-60
2021/06/19 07:55:53;;;;;;;3.88;1.10;;;;;;;27.74;44.57;101129.47;5088502;28;20060;-61
2021/06/19 07:58:22;;;;;;;4.60;1.05;;;;;;;27.93;44.09;101129.56;5082596;28;20052;-58
2021/06/19 08:00:48;;;;;;;5.05;1.25;;;;;;;27.98;44.03;101120.31;5088479;28;20072;-60
2021/06/19 08:03:14;;;;;;;2.55;1.30;;;;;;;27.93;44.16;101123.38;5083600;28;20056;-63
2021/06/19 08:05:41;;;;;;;3.40;1.20;;;;;;;27.92;44.62;101122.53;5084990;28;20052;-62
2021/06/19 08:08:07;;;;;;;4.57;1.40;;;;;;;27.84;45.16;101129.53;5086075;28;20044;-60
2021/06/19 08:10:34;;;;;;;2.60;1.20;;;;;;;27.83;45.51;101123.34;5085020;28;20056;-62
2021/06/19 08:13:00;;;;;;;2.10;1.17;;;;;;;27.82;45.17;101126.97;5085456;28;20051;-61
2021/06/19 08:15:29;;;;;;;2.72;1.60;;;;;;;27.78;45.57;101117.56;5082731;28;20109;-63
2021/06/19 08:17:55;;;;;;;2.30;1.13;;;;;;;27.90;45.21;101119.13;5088747;28;20048;-63
2021/06/19 08:20:21;;;;;;;2.28;1.30;;;;;;;28.04;44.65;101117.09;5082274;28;20051;-63
2021/06/19 08:22:48;;;;;;;2.60;1.17;;;;;;;27.99;44.12;101117.50;5086039;28;20055;-61
2021/06/19 08:25:15;;;;;;;2.25;1.10;;;;;;;28.03;44.48;101112.72;5079901;28;20076;-60
2021/06/19 08:27:42;;;;;;;3.25;1.20;;;;;;;28.24;43.40;101118.06;5084704;28;20048;-63
2021/06/19 08:30:09;;;;;;;2.97;1.15;;;;;;;28.25;43.10;101111.69;5081250;28;20055;-57
2021/06/19 08:32:37;;;;;;;4.40;1.33;;;;;;;28.24;43.07;101113.53;5087548;28;20047;-61
2021/06/19 08:35:04;;;;;;;4.25;1.13;;;;;;;28.24;42.41;101113.53;5081699;28;20059;-58
2021/06/19 08:37:31;;;;;;;3.20;1.30;;;;;;;28.19;43.29;101118.47;5083884;28;20497;-60
2021/06/19 08:39:58;;;;;;;2.35;1.23;;;;;;;28.11;43.54;101112.91;5082309;28;20059;-65
2021/06/19 08:42:25;;;;;;;3.70;1.15;;;;;;;28.18;42.68;101107.88;5078709;28;20040;-59
2021/06/19 08:44:53;;;;;;;2.25;0.95;;;;;;;28.31;42.22;101116.50;5078069;28;20043;-58
2021/06/19 08:47:24;;;;;;;3.83;1.40;;;;;;;28.30;42.98;101100.63;5087802;28;20082;-57
2021/06/19 08:49:54;;;;;;;4.05;1.10;;;;;;;28.41;42.43;101103.16;5079046;28;20087;-57
2021/06/19 08:52:21;;;;;;;4.70;1.10;;;;;;;28.47;42.73;101099.94;5085130;28;20052;-61
2021/06/19 08:54:48;;;;;;;6.30;1.27;;;;;;;28.45;41.83;101096.56;5082740;28;20094;-55
2021/06/19 08:57:14;;;;;;;1.70;1.00;;;;;;;28.13;42.93;101089.56;5091200;28;20089;-56
2021/06/19 08:59:47;;;;;;;2.92;1.23;;;;;;;28.15;43.46;101092.13;5087642;28;20625;-56
2021/06/19 09:02:14;;;;;;;3.20;1.02;;;;;;;28.28;42.39;101094.53;5085220;28;20054;-57
2021/06/19 09:04:59;;;;;;;3.80;1.10;;;;;;;28.31;42.42;101097.78;5082472;28;20056;-61
2021/06/19 09:07:35;;;;;;;4.70;1.58;;;;;;;28.48;42.49;101088.25;5091622;28;20057;-57
2021/06/19 09:10:16;;;;;;;3.30;1.65;;;;;;;28.68;41.89;101080.25;5081479;28;20048;-59
2021/06/19 09:12:57;;;;;;;2.33;1.10;;;;;;;28.71;41.79;101082.66;5082240;28;20044;-58
2021/06/19 09:15:24;;;;;;;2.45;1.10;;;;;;;28.65;42.18;101088.53;5090741;28;20047;-60
2021/06/19 09:18:01;;;;;;;4.03;1.08;;;;;;;28.63;42.61;101086.03;5092681;28;20063;-62
2021/06/19 09:20:37;;;;;;;3.22;0.90;;;;;;;28.73;42.34;101090.56;5087858;28;20066;-60
2021/06/19 09:23:06;;;;;;;3.47;1.00;;;;;;;28.85;41.54;101090.28;5085796;28;20097;-58
2021/06/19 09:25:33;;;;;;;3.50;1.00;;;;;;;28.91;41.11;101090.69;5087539;28;20052;-56
2021/06/19 09:27:59;;;;;;;2.22;0.90;;;;;;;29.00;41.19;101089.84;5087561;28;20071;-59
2021/06/19 09:30:28;;;;;;;3.83;1.00;;;;;;;29.03;41.01;101084.19;5083990;28;20066;-58
2021/06/19 09:32:56;;;;;;;3.50;1.45;;;;;;;29.03;41.38;101086.06;5083873;28;20527;-60
2021/06/19 09:35:26;;;;;;;2.67;1.30;;;;;;;29.13;41.12;101090.41;5087986;28;20138;-61
2021/06/19 09:37:55;;;;;;;2.97;1.10;;;;;;;29.19;40.60;101086.31;5091861;28;20563;-59
2021/06/19 09:40:27;;;;;;;1.95;0.93;;;;;;;29.20;40.71;101088.00;5095654;28;20043;-60
2021/06/19 09:43:07;;;;;;;2.22;1.02;;;;;;;29.26;40.55;101084.72;5092011;28;20084;-60
2021/06/19 09:45:33;;;;;;;4.18;1.20;;;;;;;29.34;40.71;101077.88;5087860;28;20101;-61
2021/06/19 09:48:00;;;;;;;2.83;1.05;;;;;;;29.35;40.63;101067.00;5092991;28;20040;-61
2021/06/19 09:50:26;;;;;;;3.35;1.42;;;;;;;29.42;40.40;101065.41;5095239;28;20043;-61
2021/06/19 09:52:54;;;;;;;4.65;1.30;;;;;;;29.46;40.13;101072.19;5086309;28;20051;-65
2021/06/19 09:55:21;;;;;;;6.25;1.00;;;;;;;29.52;39.57;101076.13;5086694;28;20047;-61
2021/06/19 10:00:17;;;;;;;2.75;1.02;;;;;;;29.29;39.74;101071.06;5053802;28;20052;-65
2021/06/19 10:02:44;;;;;;;2.63;1.00;;;;;;;29.27;39.40;101069.53;5057778;28;20055;-66
2021/06/19 10:05:12;;;;;;;3.05;1.02;;;;;;;29.36;39.72;101063.31;5065726;28;20053;-64
2021/06/19 10:07:38;;;;;;;2.60;1.08;;;;;;;29.60;39.53;101065.50;5058761;28;20071;-63
2021/06/19 10:10:08;;;;;;;3.95;1.00;;;;;;;29.74;38.66;101061.50;5066706;28;20495;-63
2021/06/19 10:12:37;;;;;;;2.67;1.17;;;;;;;29.90;37.46;101068.03;5073492;28;20532;-64
2021/06/19 10:15:07;;;;;;;2.78;1.00;;;;;;;29.83;38.60;101064.28;5073164;28;20512;-68
2021/06/19 10:17:35;;;;;;;2.95;1.30;;;;;;;29.91;38.17;101061.69;5075724;28;20646;-63
2021/06/19 10:20:05;;;;;;;2.25;1.02;;;;;;;29.86;38.48;101053.25;5068450;28;20044;-65
2021/06/19 10:22:33;;;;;;;4.63;1.00;;;;;;;29.95;38.35;101060.44;5065550;28;20059;-64
2021/06/19 10:25:02;;;;;;;3.63;1.00;;;;;;;29.97;38.00;101062.97;5068078;28;20052;-63
2021/06/19 10:27:31;;;;;;;4.55;1.10;;;;;;;29.96;38.39;101072.88;5068984;28;20418;-65
2021/06/19 10:30:00;;;;;;;5.13;1.10;;;;;;;30.00;37.93;101058.16;5072019;28;20055;-64
2021/06/19 10:32:43;;;;;;;3.20;1.10;;;;;;;30.06;37.58;101062.94;5063663;28;20787;-64
2021/06/19 10:35:13;;;;;;;3.88;1.20;;;;;;;30.04;37.69;101066.78;5069073;28;20048;-67
2021/06/19 10:37:40;;;;;;;1.92;0.90;;;;;;;30.02;37.70;101060.69;5066247;28;20315;-65
2021/06/19 10:40:22;;;;;;;2.80;0.88;;;;;;;30.06;38.15;101054.88;5064947;28;20070;-61
2021/06/19 10:42:51;;;;;;;2.65;1.20;;;;;;;30.08;37.84;101054.72;5070909;28;20138;-65
2021/06/19 10:45:22;;;;;;;2.20;1.20;;;;;;;30.19;37.43;101048.31;5063216;28;20044;-64
2021/06/19 10:48:04;;;;;;;3.35;1.00;;;;;;;30.18;37.53;101047.47;5064018;28;20049;-65
2021/06/19 10:50:31;;;;;;;3.25;1.13;;;;;;;30.27;37.14;101051.09;5065863;28;20106;-65
2021/06/19 10:53:08;;;;;;;2.72;1.20;;;;;;;30.28;37.20;101036.69;5072476;28;20076;-62
2021/06/19 10:55:51;;;;;;;3.67;1.10;;;;;;;30.33;37.82;101037.06;5068915;28;20433;-64
2021/06/19 10:58:21;;;;;;;3.28;1.50;;;;;;;30.51;36.82;101030.84;5060940;28;20127;-67
2021/06/19 11:00:50;;;;;;;2.75;1.30;;;;;;;30.49;36.05;101024.81;5056259;28;20059;-65
2021/06/19 11:03:18;;;;;;;4.65;1.30;;;;;;;29.95;37.37;101020.22;5059303;28;20521;-63
2021/06/19 11:05:59;;;;;;;3.58;1.20;;;;;;;29.72;38.52;101020.56;5067131;28;20047;-66
2021/06/19 11:08:26;;;;;;;2.20;1.20;;;;;;;29.90;38.28;101017.09;5060397;28;20479;-66
2021/06/19 11:10:57;;;;;;;1.92;1.05;;;;;;;30.13;38.31;101012.22;5066270;28;20044;-66
2021/06/19 11:13:48;;;;;;;3.67;1.40;;;;;;;30.43;37.71;101001.25;5071812;28;20063;-61
2021/06/19 11:16:48;;;;;;;2.72;1.10;;;;;;;30.55;37.71;101000.88;5066969;28;20047;-65
2021/06/19 11:19:35;;;;;;;2.10;1.08;;;;;;;30.52;37.04;101003.00;5061069;28;20044;-63
2021/06/19 11:22:36;;;;;;;2.83;1.25;;;;;;;30.48;37.37;101001.66;5070828;28;20051;-61
2021/06/19 11:25:55;;;;;;;4.10;1.10;;;;;;;30.60;37.63;101005.78;5060691;28;20041;-67
2021/06/19 11:28:30;;;;;;;4.15;1.67;;;;;;;30.78;37.56;101002.25;5060066;28;20044;-66
2021/06/19 11:31:01;;;;;;;2.58;1.55;;;;;;;30.92;37.57;100999.00;5061008;28;20139;-67
2021/06/19 11:33:43;;;;;;;2.80;1.42;;;;;;;31.05;36.97;101003.09;5071423;28;20059;-63